MUC weather

Munich Airport
Munich, Bavaria, Germany

Public forecast

Using degrees Celsius for public forecast. Weather courtesy of forecast.io.

METAR (pilot weather report)

Retrieved 2019/02/18 17:50 UTC (17 minutes ago):

EDDM 181750Z 08003KT CAVOK 04/M01 Q1019 NOSIG

TAF (pilot weather forecast)

Retrieved 2019/02/18 18:27 UTC (0 seconds ago):

TAF EDDM 181700Z 1818/1924 VRB02KT CAVOK BECMG 1908/1910 25006KT